sensor_id;sensor_type;location;lat;lon;timestamp;temperature;humidity
8463;DHT22;4268;52.506;13.462;2022-10-26T00:02:14;10.60;99.90
8463;DHT22;4268;52.506;13.462;2022-10-26T00:04:39;10.60;99.90
8463;DHT22;4268;52.506;13.462;2022-10-26T00:07:05;10.70;99.90
8463;DHT22;4268;52.506;13.462;2022-10-26T00:09:30;10.60;99.90
8463;DHT22;4268;52.506;13.462;2022-10-26T00:11:56;10.60;99.90
8463;DHT22;4268;52.506;13.462;2022-10-26T00:14:22;10.50;99.90
8463;DHT22;4268;52.506;13.462;2022-10-26T00:16:47;10.60;99.90
8463;DHT22;4268;52.506;13.462;2022-10-26T00:19:13;10.50;99.90
8463;DHT22;4268;52.506;13.462;2022-10-26T00:21:38;10.50;99.90
8463;DHT22;4268;52.506;13.462;2022-10-26T00:24:04;10.50;99.90
8463;DHT22;4268;52.506;13.462;2022-10-26T00:26:29;10.50;99.90
8463;DHT22;4268;52.506;13.462;2022-10-26T00:28:55;10.50;99.90
8463;DHT22;4268;52.506;13.462;2022-10-26T00:31:22;10.40;99.90
8463;DHT22;4268;52.506;13.462;2022-10-26T00:33:52;10.40;99.90
8463;DHT22;4268;52.506;13.462;2022-10-26T00:36:18;10.40;99.90
8463;DHT22;4268;52.506;13.462;2022-10-26T00:38:51;10.40;99.90
8463;DHT22;4268;52.506;13.462;2022-10-26T00:41:20;10.40;99.90
8463;DHT22;4268;52.506;13.462;2022-10-26T00:43:46;10.40;99.90
8463;DHT22;4268;52.506;13.462;2022-10-26T00:46:15;10.40;99.90
8463;DHT22;4268;52.506;13.462;2022-10-26T00:48:46;10.40;99.90
8463;DHT22;4268;52.506;13.462;2022-10-26T00:51:23;10.30;99.90
8463;DHT22;4268;52.506;13.462;2022-10-26T00:53:50;10.30;99.90
8463;DHT22;4268;52.506;13.462;2022-10-26T00:56:16;10.30;99.90
8463;DHT22;4268;52.506;13.462;2022-10-26T00:58:43;10.30;99.90
8463;DHT22;4268;52.506;13.462;2022-10-26T01:01:09;10.20;99.90
8463;DHT22;4268;52.506;13.462;2022-10-26T01:03:35;10.20;99.90
8463;DHT22;4268;52.506;13.462;2022-10-26T01:06:02;10.20;99.90
8463;DHT22;4268;52.506;13.462;2022-10-26T01:08:29;10.20;99.90
8463;DHT22;4268;52.506;13.462;2022-10-26T01:10:57;10.30;99.90
8463;DHT22;4268;52.506;13.462;2022-10-26T01:13:24;10.30;99.90
8463;DHT22;4268;52.506;13.462;2022-10-26T01:18:46;10.20;99.90
8463;DHT22;4268;52.506;13.462;2022-10-26T01:21:27;10.20;99.90
8463;DHT22;4268;52.506;13.462;2022-10-26T01:24:17;10.20;99.90
8463;DHT22;4268;52.506;13.462;2022-10-26T01:26:52;10.20;99.90
8463;DHT22;4268;52.506;13.462;2022-10-26T01:32:31;10.10;99.90
8463;DHT22;4268;52.506;13.462;2022-10-26T01:35:07;10.10;99.90
8463;DHT22;4268;52.506;13.462;2022-10-26T01:37:42;10.00;99.90
8463;DHT22;4268;52.506;13.462;2022-10-26T01:40:35;10.00;99.90
8463;DHT22;4268;52.506;13.462;2022-10-26T01:43:06;10.00;99.90
8463;DHT22;4268;52.506;13.462;2022-10-26T01:45:33;10.00;99.90
8463;DHT22;4268;52.506;13.462;2022-10-26T01:48:00;9.90;99.90
8463;DHT22;4268;52.506;13.462;2022-10-26T01:50:28;9.90;99.90
8463;DHT22;4268;52.506;13.462;2022-10-26T01:52:54;9.90;99.90
8463;DHT22;4268;52.506;13.462;2022-10-26T01:55:46;9.90;99.90
8463;DHT22;4268;52.506;13.462;2022-10-26T02:01:29;10.30;99.90
8463;DHT22;4268;52.506;13.462;2022-10-26T02:04:30;9.80;99.90
8463;DHT22;4268;52.506;13.462;2022-10-26T02:09:57;9.80;99.90
8463;DHT22;4268;52.506;13.462;2022-10-26T02:14:56;9.80;99.90
8463;DHT22;4268;52.506;13.462;2022-10-26T02:17:32;9.80;99.90
8463;DHT22;4268;52.506;13.462;2022-10-26T02:20:03;9.80;99.90
8463;DHT22;4268;52.506;13.462;2022-10-26T02:22:35;9.80;99.90
8463;DHT22;4268;52.506;13.462;2022-10-26T02:25:23;9.90;99.90
8463;DHT22;4268;52.506;13.462;2022-10-26T02:27:54;9.70;99.90
8463;DHT22;4268;52.506;13.462;2022-10-26T02:30:20;9.80;99.90
8463;DHT22;4268;52.506;13.462;2022-10-26T02:32:49;9.70;99.90
8463;DHT22;4268;52.506;13.462;2022-10-26T02:35:16;9.70;99.90
8463;DHT22;4268;52.506;13.462;2022-10-26T02:37:45;9.70;99.90
8463;DHT22;4268;52.506;13.462;2022-10-26T02:40:15;9.70;99.90
8463;DHT22;4268;52.506;13.462;2022-10-26T02:42:44;9.70;99.90
8463;DHT22;4268;52.506;13.462;2022-10-26T02:45:15;9.70;99.90
8463;DHT22;4268;52.506;13.462;2022-10-26T02:47:41;9.60;99.90
8463;DHT22;4268;52.506;13.462;2022-10-26T02:50:07;9.60;99.90
8463;DHT22;4268;52.506;13.462;2022-10-26T02:53:09;9.60;99.90
8463;DHT22;4268;52.506;13.462;2022-10-26T02:55:45;9.60;99.90
8463;DHT22;4268;52.506;13.462;2022-10-26T02:58:17;9.60;99.90
8463;DHT22;4268;52.506;13.462;2022-10-26T03:00:44;9.50;99.90
8463;DHT22;4268;52.506;13.462;2022-10-26T03:03:10;9.50;99.90
8463;DHT22;4268;52.506;13.462;2022-10-26T03:05:41;9.50;99.90
8463;DHT22;4268;52.506;13.462;2022-10-26T03:08:07;9.50;99.90
8463;DHT22;4268;52.506;13.462;2022-10-26T03:10:33;9.50;99.90
8463;DHT22;4268;52.506;13.462;2022-10-26T03:13:00;9.50;99.90
8463;DHT22;4268;52.506;13.462;2022-10-26T03:15:26;9.40;99.90
8463;DHT22;4268;52.506;13.462;2022-10-26T03:17:51;9.50;99.90
8463;DHT22;4268;52.506;13.462;2022-10-26T03:20:17;9.50;99.90
8463;DHT22;4268;52.506;13.462;2022-10-26T03:22:42;9.40;99.90
8463;DHT22;4268;52.506;13.462;2022-10-26T03:25:08;9.40;99.90
8463;DHT22;4268;52.506;13.462;2022-10-26T03:27:33;9.40;99.90
8463;DHT22;4268;52.506;13.462;2022-10-26T03:29:59;9.40;99.90
8463;DHT22;4268;52.506;13.462;2022-10-26T03:32:25;9.40;99.90
8463;DHT22;4268;52.506;13.462;2022-10-26T03:34:50;9.50;99.90
8463;DHT22;4268;52.506;13.462;2022-10-26T03:37:16;9.40;99.90
8463;DHT22;4268;52.506;13.462;2022-10-26T03:39:41;9.40;99.90
8463;DHT22;4268;52.506;13.462;2022-10-26T03:42:07;9.40;99.90
8463;DHT22;4268;52.506;13.462;2022-10-26T03:44:32;9.30;99.90
8463;DHT22;4268;52.506;13.462;2022-10-26T03:46:57;9.30;99.90
8463;DHT22;4268;52.506;13.462;2022-10-26T03:49:23;9.30;99.90
8463;DHT22;4268;52.506;13.462;2022-10-26T03:51:48;9.30;99.90
8463;DHT22;4268;52.506;13.462;2022-10-26T03:54:14;9.30;99.90
8463;DHT22;4268;52.506;13.462;2022-10-26T03:56:39;9.30;99.90
8463;DHT22;4268;52.506;13.462;2022-10-26T03:59:05;9.30;99.90
8463;DHT22;4268;52.506;13.462;2022-10-26T04:01:30;9.20;99.90
8463;DHT22;4268;52.506;13.462;2022-10-26T04:03:56;9.30;99.90
8463;DHT22;4268;52.506;13.462;2022-10-26T04:06:21;9.30;99.90
8463;DHT22;4268;52.506;13.462;2022-10-26T04:08:47;9.20;99.90
8463;DHT22;4268;52.506;13.462;2022-10-26T04:11:12;9.20;99.90
8463;DHT22;4268;52.506;13.462;2022-10-26T04:13:38;9.30;99.90
8463;DHT22;4268;52.506;13.462;2022-10-26T04:16:04;9.30;99.90
8463;DHT22;4268;52.506;13.462;2022-10-26T04:18:29;9.20;99.90
8463;DHT22;4268;52.506;13.462;2022-10-26T04:20:55;8.70;99.90
8463;DHT22;4268;52.506;13.462;2022-10-26T04:23:21;9.20;99.90
8463;DHT22;4268;52.506;13.462;2022-10-26T04:25:46;9.30;99.90
8463;DHT22;4268;52.506;13.462;2022-10-26T04:28:12;9.10;99.90
8463;DHT22;4268;52.506;13.462;2022-10-26T04:30:38;9.10;99.90
8463;DHT22;4268;52.506;13.462;2022-10-26T04:33:04;9.10;99.90
8463;DHT22;4268;52.506;13.462;2022-10-26T04:35:31;9.10;99.90
8463;DHT22;4268;52.506;13.462;2022-10-26T04:38:01;9.00;99.90
8463;DHT22;4268;52.506;13.462;2022-10-26T04:40:28;9.00;99.90
8463;DHT22;4268;52.506;13.462;2022-10-26T04:42:54;9.00;99.90
8463;DHT22;4268;52.506;13.462;2022-10-26T04:45:20;9.00;99.90
8463;DHT22;4268;52.506;13.462;2022-10-26T04:47:46;9.00;99.90
8463;DHT22;4268;52.506;13.462;2022-10-26T04:50:12;9.00;99.90
8463;DHT22;4268;52.506;13.462;2022-10-26T04:52:38;9.00;99.90
8463;DHT22;4268;52.506;13.462;2022-10-26T04:55:05;9.00;99.90
8463;DHT22;4268;52.506;13.462;2022-10-26T04:57:32;9.00;99.90
8463;DHT22;4268;52.506;13.462;2022-10-26T04:59:59;9.00;99.90
8463;DHT22;4268;52.506;13.462;2022-10-26T05:02:25;9.00;99.90
8463;DHT22;4268;52.506;13.462;2022-10-26T05:04:50;8.90;99.90
8463;DHT22;4268;52.506;13.462;2022-10-26T05:07:16;8.90;99.90
8463;DHT22;4268;52.506;13.462;2022-10-26T05:09:41;8.90;99.90
8463;DHT22;4268;52.506;13.462;2022-10-26T05:12:07;8.90;99.90
8463;DHT22;4268;52.506;13.462;2022-10-26T05:14:32;8.90;99.90
8463;DHT22;4268;52.506;13.462;2022-10-26T05:16:58;8.90;99.90
8463;DHT22;4268;52.506;13.462;2022-10-26T05:19:23;8.90;99.90
8463;DHT22;4268;52.506;13.462;2022-10-26T05:21:49;8.80;99.90
8463;DHT22;4268;52.506;13.462;2022-10-26T05:24:17;8.80;99.90
8463;DHT22;4268;52.506;13.462;2022-10-26T05:26:43;8.80;99.90
8463;DHT22;4268;52.506;13.462;2022-10-26T05:29:09;8.70;99.90
8463;DHT22;4268;52.506;13.462;2022-10-26T05:31:34;8.70;99.90
8463;DHT22;4268;52.506;13.462;2022-10-26T05:34:00;8.70;99.90
8463;DHT22;4268;52.506;13.462;2022-10-26T05:36:26;8.70;99.90
8463;DHT22;4268;52.506;13.462;2022-10-26T05:38:51;8.70;99.90
8463;DHT22;4268;52.506;13.462;2022-10-26T05:41:17;8.70;99.90
8463;DHT22;4268;52.506;13.462;2022-10-26T05:43:42;8.60;99.90
8463;DHT22;4268;52.506;13.462;2022-10-26T05:46:08;8.60;99.90
8463;DHT22;4268;52.506;13.462;2022-10-26T05:48:33;8.50;99.90
8463;DHT22;4268;52.506;13.462;2022-10-26T05:50:59;8.60;99.90
8463;DHT22;4268;52.506;13.462;2022-10-26T05:53:25;8.60;99.90
8463;DHT22;4268;52.506;13.462;2022-10-26T05:55:51;8.50;99.90
8463;DHT22;4268;52.506;13.462;2022-10-26T05:58:17;8.50;99.90
8463;DHT22;4268;52.506;13.462;2022-10-26T06:01:09;8.50;99.90
8463;DHT22;4268;52.506;13.462;2022-10-26T06:03:54;8.50;99.90
8463;DHT22;4268;52.506;13.462;2022-10-26T06:06:22;8.50;99.90
8463;DHT22;4268;52.506;13.462;2022-10-26T06:08:47;8.50;99.90
8463;DHT22;4268;52.506;13.462;2022-10-26T06:11:13;8.50;99.90
8463;DHT22;4268;52.506;13.462;2022-10-26T06:13:39;8.50;99.90
8463;DHT22;4268;52.506;13.462;2022-10-26T06:16:30;8.50;99.90
8463;DHT22;4268;52.506;13.462;2022-10-26T06:19:11;8.50;99.90
8463;DHT22;4268;52.506;13.462;2022-10-26T06:21:58;8.50;99.90
8463;DHT22;4268;52.506;13.462;2022-10-26T06:24:54;8.50;99.90
8463;DHT22;4268;52.506;13.462;2022-10-26T06:32:28;8.60;99.90
8463;DHT22;4268;52.506;13.462;2022-10-26T06:37:46;8.70;99.90
8463;DHT22;4268;52.506;13.462;2022-10-26T06:40:15;8.70;99.90
8463;DHT22;4268;52.506;13.462;2022-10-26T06:42:41;8.70;99.90
8463;DHT22;4268;52.506;13.462;2022-10-26T06:45:13;8.80;99.90
8463;DHT22;4268;52.506;13.462;2022-10-26T06:47:58;8.90;99.90
8463;DHT22;4268;52.506;13.462;2022-10-26T06:50:30;9.20;99.90
8463;DHT22;4268;52.506;13.462;2022-10-26T06:55:49;11.40;99.90
8463;DHT22;4268;52.506;13.462;2022-10-26T06:58:20;12.60;99.90
8463;DHT22;4268;52.506;13.462;2022-10-26T07:00:48;13.80;99.90
8463;DHT22;4268;52.506;13.462;2022-10-26T07:03:14;14.90;99.90
8463;DHT22;4268;52.506;13.462;2022-10-26T07:05:40;15.60;99.90
8463;DHT22;4268;52.506;13.462;2022-10-26T07:08:06;16.20;99.90
8463;DHT22;4268;52.506;13.462;2022-10-26T07:10:31;16.90;99.90
8463;DHT22;4268;52.506;13.462;2022-10-26T07:13:00;17.50;99.90
8463;DHT22;4268;52.506;13.462;2022-10-26T07:15:25;18.10;99.90
8463;DHT22;4268;52.506;13.462;2022-10-26T07:17:51;18.50;99.90
8463;DHT22;4268;52.506;13.462;2022-10-26T07:20:18;18.70;99.90
8463;DHT22;4268;52.506;13.462;2022-10-26T07:22:44;19.00;99.70
8463;DHT22;4268;52.506;13.462;2022-10-26T07:25:10;19.10;98.80
8463;DHT22;4268;52.506;13.462;2022-10-26T07:27:36;18.70;98.60
8463;DHT22;4268;52.506;13.462;2022-10-26T07:30:02;17.30;99.90
8463;DHT22;4268;52.506;13.462;2022-10-26T07:32:28;15.60;99.90
8463;DHT22;4268;52.506;13.462;2022-10-26T07:34:54;14.20;99.90
8463;DHT22;4268;52.506;13.462;2022-10-26T07:37:20;13.30;99.90
8463;DHT22;4268;52.506;13.462;2022-10-26T07:39:45;12.70;99.90
8463;DHT22;4268;52.506;13.462;2022-10-26T07:42:11;12.20;99.90
8463;DHT22;4268;52.506;13.462;2022-10-26T07:44:36;12.00;99.90
8463;DHT22;4268;52.506;13.462;2022-10-26T07:47:02;11.80;99.90
8463;DHT22;4268;52.506;13.462;2022-10-26T07:49:27;11.70;99.90
8463;DHT22;4268;52.506;13.462;2022-10-26T07:51:53;11.60;99.90
8463;DHT22;4268;52.506;13.462;2022-10-26T07:54:18;11.40;99.90
8463;DHT22;4268;52.506;13.462;2022-10-26T07:56:44;11.50;99.90
8463;DHT22;4268;52.506;13.462;2022-10-26T07:59:12;11.30;99.90
8463;DHT22;4268;52.506;13.462;2022-10-26T08:01:38;11.30;99.90
8463;DHT22;4268;52.506;13.462;2022-10-26T08:04:04;11.30;99.90
8463;DHT22;4268;52.506;13.462;2022-10-26T08:06:29;11.30;99.90
8463;DHT22;4268;52.506;13.462;2022-10-26T08:08:54;11.30;99.90
8463;DHT22;4268;52.506;13.462;2022-10-26T08:11:20;11.30;99.90
8463;DHT22;4268;52.506;13.462;2022-10-26T08:13:45;11.20;99.90
8463;DHT22;4268;52.506;13.462;2022-10-26T08:16:11;11.30;99.90
8463;DHT22;4268;52.506;13.462;2022-10-26T08:18:37;11.30;99.90
8463;DHT22;4268;52.506;13.462;2022-10-26T08:21:10;11.30;99.90
8463;DHT22;4268;52.506;13.462;2022-10-26T08:23:36;11.30;99.90
8463;DHT22;4268;52.506;13.462;2022-10-26T08:26:02;11.20;99.90
8463;DHT22;4268;52.506;13.462;2022-10-26T08:28:28;11.20;99.90
8463;DHT22;4268;52.506;13.462;2022-10-26T08:30:55;11.20;99.90
8463;DHT22;4268;52.506;13.462;2022-10-26T08:33:21;11.30;99.90
8463;DHT22;4268;52.506;13.462;2022-10-26T08:35:47;11.40;99.90
8463;DHT22;4268;52.506;13.462;2022-10-26T08:38:13;11.50;99.90
8463;DHT22;4268;52.506;13.462;2022-10-26T08:40:40;11.50;99.90
8463;DHT22;4268;52.506;13.462;2022-10-26T08:45:54;11.60;99.90
8463;DHT22;4268;52.506;13.462;2022-10-26T08:48:26;11.70;99.90
8463;DHT22;4268;52.506;13.462;2022-10-26T08:50:59;11.70;99.90
8463;DHT22;4268;52.506;13.462;2022-10-26T08:53:56;11.80;99.90
8463;DHT22;4268;52.506;13.462;2022-10-26T08:56:26;11.90;99.90
8463;DHT22;4268;52.506;13.462;2022-10-26T08:58:55;12.00;99.90
8463;DHT22;4268;52.506;13.462;2022-10-26T09:01:21;12.10;99.90
8463;DHT22;4268;52.506;13.462;2022-10-26T09:03:47;12.20;99.90
8463;DHT22;4268;52.506;13.462;2022-10-26T09:06:24;12.30;99.90
8463;DHT22;4268;52.506;13.462;2022-10-26T09:09:13;12.40;99.90
8463;DHT22;4268;52.506;13.462;2022-10-26T09:12:00;12.40;99.90
8463;DHT22;4268;52.506;13.462;2022-10-26T09:14:54;12.50;99.90
8463;DHT22;4268;52.506;13.462;2022-10-26T09:20:44;12.60;99.90
8463;DHT22;4268;52.506;13.462;2022-10-26T09:23:44;12.70;99.90
8463;DHT22;4268;52.506;13.462;2022-10-26T09:26:14;12.70;99.90
8463;DHT22;4268;52.506;13.462;2022-10-26T09:28:45;12.70;99.90
8463;DHT22;4268;52.506;13.462;2022-10-26T09:31:14;12.90;99.90
8463;DHT22;4268;52.506;13.462;2022-10-26T09:33:40;13.00;99.90
8463;DHT22;4268;52.506;13.462;2022-10-26T09:36:08;13.10;99.90
8463;DHT22;4268;52.506;13.462;2022-10-26T09:39:07;13.20;99.90
8463;DHT22;4268;52.506;13.462;2022-10-26T09:41:40;13.30;99.90
8463;DHT22;4268;52.506;13.462;2022-10-26T09:44:24;13.30;99.90
8463;DHT22;4268;52.506;13.462;2022-10-26T09:50:01;13.50;99.90
8463;DHT22;4268;52.506;13.462;2022-10-26T09:52:28;13.70;99.90
8463;DHT22;4268;52.506;13.462;2022-10-26T09:54:54;13.70;99.90
8463;DHT22;4268;52.506;13.462;2022-10-26T09:57:19;13.90;99.90
8463;DHT22;4268;52.506;13.462;2022-10-26T09:59:46;14.00;99.90
8463;DHT22;4268;52.506;13.462;2022-10-26T10:02:35;14.00;99.90
8463;DHT22;4268;52.506;13.462;2022-10-26T10:05:04;14.10;99.90
8463;DHT22;4268;52.506;13.462;2022-10-26T10:07:44;14.20;99.90
8463;DHT22;4268;52.506;13.462;2022-10-26T10:10:19;14.30;99.90
8463;DHT22;4268;52.506;13.462;2022-10-26T10:12:46;14.40;99.90
8463;DHT22;4268;52.506;13.462;2022-10-26T10:15:23;14.50;99.90
8463;DHT22;4268;52.506;13.462;2022-10-26T10:17:51;14.60;99.90
8463;DHT22;4268;52.506;13.462;2022-10-26T10:20:20;14.70;99.90
8463;DHT22;4268;52.506;13.462;2022-10-26T10:22:53;14.80;99.90
8463;DHT22;4268;52.506;13.462;2022-10-26T10:27:52;15.00;99.90
8463;DHT22;4268;52.506;13.462;2022-10-26T10:30:21;15.00;99.90
8463;DHT22;4268;52.506;13.462;2022-10-26T10:33:03;15.10;99.90
8463;DHT22;4268;52.506;13.462;2022-10-26T10:35:29;15.20;99.90
8463;DHT22;4268;52.506;13.462;2022-10-26T10:37:56;15.20;99.90
8463;DHT22;4268;52.506;13.462;2022-10-26T10:40:28;15.30;99.90
8463;DHT22;4268;52.506;13.462;2022-10-26T10:43:10;15.40;99.90
8463;DHT22;4268;52.506;13.462;2022-10-26T10:45:37;15.40;99.90
8463;DHT22;4268;52.506;13.462;2022-10-26T10:48:13;15.60;99.90
8463;DHT22;4268;52.506;13.462;2022-10-26T10:51:09;15.60;99.90
8463;DHT22;4268;52.506;13.462;2022-10-26T10:53:53;15.60;99.90
8463;DHT22;4268;52.506;13.462;2022-10-26T10:56:27;15.70;99.90
8463;DHT22;4268;52.506;13.462;2022-10-26T10:59:05;15.70;99.90
8463;DHT22;4268;52.506;13.462;2022-10-26T11:04:50;15.70;99.90
8463;DHT22;4268;52.506;13.462;2022-10-26T11:07:22;15.80;99.90
8463;DHT22;4268;52.506;13.462;2022-10-26T11:09:50;15.90;99.90
8463;DHT22;4268;52.506;13.462;2022-10-26T11:12:22;15.90;99.90
8463;DHT22;4268;52.506;13.462;2022-10-26T11:15:13;16.00;99.90
8463;DHT22;4268;52.506;13.462;2022-10-26T11:17:51;16.00;99.90
8463;DHT22;4268;52.506;13.462;2022-10-26T11:20:22;16.00;99.90
8463;DHT22;4268;52.506;13.462;2022-10-26T11:25:23;16.10;99.90
8463;DHT22;4268;52.506;13.462;2022-10-26T11:30:21;16.20;99.90
8463;DHT22;4268;52.506;13.462;2022-10-26T11:32:53;16.20;99.90
8463;DHT22;4268;52.506;13.462;2022-10-26T11:39:07;16.20;99.90
8463;DHT22;4268;52.506;13.462;2022-10-26T11:41:24;16.20;99.90
8463;DHT22;4268;52.506;13.462;2022-10-26T11:46:29;16.20;99.90
8463;DHT22;4268;52.506;13.462;2022-10-26T11:49:20;16.30;99.90
8463;DHT22;4268;52.506;13.462;2022-10-26T11:54:45;16.40;99.90
8463;DHT22;4268;52.506;13.462;2022-10-26T11:57:14;16.40;99.90
8463;DHT22;4268;52.506;13.462;2022-10-26T11:59:48;16.50;99.90
8463;DHT22;4268;52.506;13.462;2022-10-26T12:02:18;16.50;99.90
8463;DHT22;4268;52.506;13.462;2022-10-26T12:04:46;16.60;99.90
8463;DHT22;4268;52.506;13.462;2022-10-26T12:07:23;16.60;99.90
8463;DHT22;4268;52.506;13.462;2022-10-26T12:09:49;16.70;99.90
8463;DHT22;4268;52.506;13.462;2022-10-26T12:15:42;16.60;99.90
8463;DHT22;4268;52.506;13.462;2022-10-26T12:19:00;16.70;99.90
8463;DHT22;4268;52.506;13.462;2022-10-26T12:21:18;16.70;99.90
8463;DHT22;4268;52.506;13.462;2022-10-26T12:24:01;16.70;99.90
8463;DHT22;4268;52.506;13.462;2022-10-26T12:26:57;16.80;99.90
8463;DHT22;4268;52.506;13.462;2022-10-26T12:31:55;16.80;99.90
8463;DHT22;4268;52.506;13.462;2022-10-26T12:37:30;16.80;99.90
8463;DHT22;4268;52.506;13.462;2022-10-26T12:45:41;16.80;99.90
8463;DHT22;4268;52.506;13.462;2022-10-26T12:50:45;16.90;99.90
8463;DHT22;4268;52.506;13.462;2022-10-26T12:53:13;16.90;99.90
8463;DHT22;4268;52.506;13.462;2022-10-26T13:03:49;17.00;99.90
8463;DHT22;4268;52.506;13.462;2022-10-26T13:08:55;17.00;99.90
8463;DHT22;4268;52.506;13.462;2022-10-26T13:11:33;17.00;99.90
8463;DHT22;4268;52.506;13.462;2022-10-26T13:14:05;17.00;99.90
8463;DHT22;4268;52.506;13.462;2022-10-26T13:16:31;17.00;99.90
8463;DHT22;4268;52.506;13.462;2022-10-26T13:18:58;17.00;99.90
8463;DHT22;4268;52.506;13.462;2022-10-26T13:21:25;16.90;99.90
8463;DHT22;4268;52.506;13.462;2022-10-26T13:26:27;16.90;99.90
8463;DHT22;4268;52.506;13.462;2022-10-26T13:28:54;17.00;99.90
8463;DHT22;4268;52.506;13.462;2022-10-26T13:34:02;17.10;99.90
8463;DHT22;4268;52.506;13.462;2022-10-26T13:36:50;17.10;99.90
8463;DHT22;4268;52.506;13.462;2022-10-26T13:39:30;17.10;99.90
8463;DHT22;4268;52.506;13.462;2022-10-26T13:41:58;17.10;99.90
8463;DHT22;4268;52.506;13.462;2022-10-26T13:44:38;17.10;99.90
8463;DHT22;4268;52.506;13.462;2022-10-26T13:47:14;17.00;99.90
8463;DHT22;4268;52.506;13.462;2022-10-26T13:49:44;17.10;99.90
8463;DHT22;4268;52.506;13.462;2022-10-26T13:52:18;17.10;99.90
8463;DHT22;4268;52.506;13.462;2022-10-26T13:54:56;17.00;99.90
8463;DHT22;4268;52.506;13.462;2022-10-26T13:57:42;17.10;99.90
8463;DHT22;4268;52.506;13.462;2022-10-26T14:00:18;17.10;99.90
8463;DHT22;4268;52.506;13.462;2022-10-26T14:02:45;17.00;99.90
8463;DHT22;4268;52.506;13.462;2022-10-26T14:05:13;17.00;99.90
8463;DHT22;4268;52.506;13.462;2022-10-26T14:07:43;17.80;99.90
8463;DHT22;4268;52.506;13.462;2022-10-26T14:10:33;17.00;99.90
8463;DHT22;4268;52.506;13.462;2022-10-26T14:13:00;17.00;99.90
8463;DHT22;4268;52.506;13.462;2022-10-26T14:15:31;17.00;99.90
8463;DHT22;4268;52.506;13.462;2022-10-26T14:17:59;17.00;99.90
8463;DHT22;4268;52.506;13.462;2022-10-26T14:20:27;17.00;99.90
8463;DHT22;4268;52.506;13.462;2022-10-26T14:22:53;16.90;99.90
8463;DHT22;4268;52.506;13.462;2022-10-26T14:27:49;17.00;99.90
8463;DHT22;4268;52.506;13.462;2022-10-26T14:32:47;16.90;99.90
8463;DHT22;4268;52.506;13.462;2022-10-26T14:35:13;16.90;99.90
8463;DHT22;4268;52.506;13.462;2022-10-26T14:37:57;16.90;99.90
8463;DHT22;4268;52.506;13.462;2022-10-26T14:40:29;16.90;99.90
8463;DHT22;4268;52.506;13.462;2022-10-26T14:42:57;16.90;99.90
8463;DHT22;4268;52.506;13.462;2022-10-26T14:45:28;16.90;99.90
8463;DHT22;4268;52.506;13.462;2022-10-26T14:47:55;16.80;99.90
8463;DHT22;4268;52.506;13.462;2022-10-26T14:50:23;16.70;99.90
8463;DHT22;4268;52.506;13.462;2022-10-26T14:52:54;16.70;99.90
8463;DHT22;4268;52.506;13.462;2022-10-26T14:55:21;16.50;99.90
8463;DHT22;4268;52.506;13.462;2022-10-26T14:57:50;16.60;99.90
8463;DHT22;4268;52.506;13.462;2022-10-26T15:00:19;16.60;99.90
8463;DHT22;4268;52.506;13.462;2022-10-26T15:02:50;16.50;99.90
8463;DHT22;4268;52.506;13.462;2022-10-26T15:07:51;16.50;99.90
8463;DHT22;4268;52.506;13.462;2022-10-26T15:13:32;16.40;99.90
8463;DHT22;4268;52.506;13.462;2022-10-26T15:16:09;16.30;99.90
8463;DHT22;4268;52.506;13.462;2022-10-26T15:18:40;16.10;99.90
8463;DHT22;4268;52.506;13.462;2022-10-26T15:21:24;16.10;99.90
8463;DHT22;4268;52.506;13.462;2022-10-26T15:23:51;16.10;99.90
8463;DHT22;4268;52.506;13.462;2022-10-26T15:26:18;16.00;99.90
8463;DHT22;4268;52.506;13.462;2022-10-26T15:28:43;16.00;99.90
8463;DHT22;4268;52.506;13.462;2022-10-26T15:33:36;16.00;99.90
8463;DHT22;4268;52.506;13.462;2022-10-26T15:36:19;16.00;99.90
8463;DHT22;4268;52.506;13.462;2022-10-26T15:38:45;16.00;99.90
8463;DHT22;4268;52.506;13.462;2022-10-26T15:43:40;16.00;99.90
8463;DHT22;4268;52.506;13.462;2022-10-26T15:46:05;16.00;99.90
8463;DHT22;4268;52.506;13.462;2022-10-26T15:48:31;15.90;99.90
8463;DHT22;4268;52.506;13.462;2022-10-26T15:50:58;15.90;99.90
8463;DHT22;4268;52.506;13.462;2022-10-26T15:53:25;15.80;99.90
8463;DHT22;4268;52.506;13.462;2022-10-26T15:55:56;15.80;99.90
8463;DHT22;4268;52.506;13.462;2022-10-26T15:58:23;15.70;99.90
8463;DHT22;4268;52.506;13.462;2022-10-26T16:00:49;15.60;99.90
8463;DHT22;4268;52.506;13.462;2022-10-26T16:03:19;15.70;99.90
8463;DHT22;4268;52.506;13.462;2022-10-26T16:05:44;15.50;99.90
8463;DHT22;4268;52.506;13.462;2022-10-26T16:08:15;15.50;99.90
8463;DHT22;4268;52.506;13.462;2022-10-26T16:10:41;15.50;99.90
8463;DHT22;4268;52.506;13.462;2022-10-26T16:13:14;15.30;99.90
8463;DHT22;4268;52.506;13.462;2022-10-26T16:15:40;15.60;99.90
8463;DHT22;4268;52.506;13.462;2022-10-26T16:18:06;15.30;99.90
8463;DHT22;4268;52.506;13.462;2022-10-26T16:20:31;15.40;99.90
8463;DHT22;4268;52.506;13.462;2022-10-26T16:22:57;15.00;99.90
8463;DHT22;4268;52.506;13.462;2022-10-26T16:25:29;15.40;99.90
8463;DHT22;4268;52.506;13.462;2022-10-26T16:27:55;15.30;99.90
8463;DHT22;4268;52.506;13.462;2022-10-26T16:30:20;15.20;99.90
8463;DHT22;4268;52.506;13.462;2022-10-26T16:32:46;15.30;99.90
8463;DHT22;4268;52.506;13.462;2022-10-26T16:35:12;15.20;99.90
8463;DHT22;4268;52.506;13.462;2022-10-26T16:37:38;15.20;99.90
8463;DHT22;4268;52.506;13.462;2022-10-26T16:40:05;15.20;99.90
8463;DHT22;4268;52.506;13.462;2022-10-26T16:42:31;15.20;99.90
8463;DHT22;4268;52.506;13.462;2022-10-26T16:44:57;15.20;99.90
8463;DHT22;4268;52.506;13.462;2022-10-26T16:47:23;15.20;99.90
8463;DHT22;4268;52.506;13.462;2022-10-26T16:49:48;15.20;99.90
8463;DHT22;4268;52.506;13.462;2022-10-26T16:52:14;15.30;99.90
8463;DHT22;4268;52.506;13.462;2022-10-26T16:54:39;15.30;99.90
8463;DHT22;4268;52.506;13.462;2022-10-26T16:57:05;15.40;99.90
8463;DHT22;4268;52.506;13.462;2022-10-26T16:59:30;15.30;99.90
8463;DHT22;4268;52.506;13.462;2022-10-26T17:01:56;15.30;99.90
8463;DHT22;4268;52.506;13.462;2022-10-26T17:04:22;15.30;99.90
8463;DHT22;4268;52.506;13.462;2022-10-26T17:06:48;15.30;99.90
8463;DHT22;4268;52.506;13.462;2022-10-26T17:09:13;15.30;99.90
8463;DHT22;4268;52.506;13.462;2022-10-26T17:11:39;15.20;99.90
8463;DHT22;4268;52.506;13.462;2022-10-26T17:14:05;15.20;99.90
8463;DHT22;4268;52.506;13.462;2022-10-26T17:16:31;15.20;99.90
8463;DHT22;4268;52.506;13.462;2022-10-26T17:18:56;15.20;99.90
8463;DHT22;4268;52.506;13.462;2022-10-26T17:21:32;15.20;99.90
8463;DHT22;4268;52.506;13.462;2022-10-26T17:23:59;15.10;99.90
8463;DHT22;4268;52.506;13.462;2022-10-26T17:26:25;15.10;99.90
8463;DHT22;4268;52.506;13.462;2022-10-26T17:28:51;15.10;99.90
8463;DHT22;4268;52.506;13.462;2022-10-26T17:31:17;15.00;99.90
8463;DHT22;4268;52.506;13.462;2022-10-26T17:33:44;15.00;99.90
8463;DHT22;4268;52.506;13.462;2022-10-26T17:36:14;15.00;99.90
8463;DHT22;4268;52.506;13.462;2022-10-26T17:38:42;15.00;99.90
8463;DHT22;4268;52.506;13.462;2022-10-26T17:41:12;15.10;99.90
8463;DHT22;4268;52.506;13.462;2022-10-26T17:43:39;15.10;99.90
8463;DHT22;4268;52.506;13.462;2022-10-26T17:46:10;15.10;99.90
8463;DHT22;4268;52.506;13.462;2022-10-26T17:48:36;15.00;99.90
8463;DHT22;4268;52.506;13.462;2022-10-26T17:51:04;15.00;99.90